createdAt,value
2023-05-01T00:03:34.990Z,20.19
2023-05-01T00:06:04.492Z,20.20
2023-05-01T00:08:33.658Z,20.20
2023-05-01T00:11:07.062Z,20.20
2023-05-01T00:13:35.477Z,20.21
2023-05-01T00:16:13.977Z,20.24
2023-05-01T00:18:42.597Z,20.24
2023-05-01T00:21:11.131Z,20.25
2023-05-01T00:23:40.312Z,20.25
2023-05-01T00:26:09.944Z,20.21
2023-05-01T00:28:39.366Z,20.19
2023-05-01T00:31:08.222Z,20.18
2023-05-01T00:33:37.525Z,20.17
2023-05-01T00:36:06.706Z,20.17
2023-05-01T00:38:35.294Z,20.18
2023-05-01T00:41:04.238Z,20.18
2023-05-01T00:43:35.820Z,20.19
2023-05-01T00:46:04.412Z,20.19
2023-05-01T00:48:34.903Z,20.21
2023-05-01T00:51:09.813Z,20.21
2023-05-01T00:53:38.828Z,20.23
2023-05-01T00:56:08.031Z,20.24
2023-05-01T00:58:36.863Z,20.26
2023-05-01T01:01:05.395Z,20.26
2023-05-01T01:03:34.547Z,20.26
2023-05-01T01:06:33.506Z,20.27
2023-05-01T01:09:28.118Z,20.29
2023-05-01T01:12:10.103Z,20.31
2023-05-01T01:15:05.703Z,20.31
2023-05-01T01:18:12.838Z,20.32
2023-05-01T01:20:52.712Z,20.33
2023-05-01T01:24:12.448Z,20.34
2023-05-01T01:27:19.398Z,20.35
2023-05-01T01:30:37.306Z,20.36
2023-05-01T01:33:27.901Z,20.37
2023-05-01T01:35:59.222Z,20.38
2023-05-01T01:38:43.522Z,20.37
2023-05-01T01:41:20.587Z,20.36
2023-05-01T01:43:55.857Z,20.36
2023-05-01T01:46:26.408Z,20.35
2023-05-01T01:48:57.790Z,20.34
2023-05-01T01:51:28.408Z,20.31
2023-05-01T01:54:00.969Z,20.30
2023-05-01T01:56:30.201Z,20.29
2023-05-01T01:59:02.322Z,20.28
2023-05-01T02:01:34.026Z,20.27
2023-05-01T02:04:04.970Z,20.27
2023-05-01T02:06:35.410Z,20.27
2023-05-01T02:09:05.452Z,20.27
2023-05-01T02:11:36.705Z,20.27
2023-05-01T02:14:07.580Z,20.27
2023-05-01T02:16:37.368Z,20.26
2023-05-01T02:19:07.538Z,20.26
2023-05-01T02:21:38.171Z,20.26
2023-05-01T02:24:09.101Z,20.27
2023-05-01T02:26:42.471Z,20.28
2023-05-01T02:29:11.945Z,20.28
2023-05-01T02:31:41.758Z,20.28
2023-05-01T02:34:09.899Z,20.27
2023-05-01T02:36:38.819Z,20.26
2023-05-01T02:39:08.076Z,20.26
2023-05-01T02:41:40.083Z,20.26
2023-05-01T02:44:11.916Z,20.24
2023-05-01T02:46:43.829Z,20.23
2023-05-01T02:49:12.992Z,20.21
2023-05-01T02:51:42.618Z,20.20
2023-05-01T02:54:13.498Z,20.19
2023-05-01T02:56:42.771Z,20.17
2023-05-01T02:59:12.040Z,20.15
2023-05-01T03:01:40.816Z,20.13
2023-05-01T03:04:09.734Z,20.10
2023-05-01T03:06:39.311Z,20.07
2023-05-01T03:09:08.221Z,20.04
2023-05-01T03:11:37.806Z,20.01
2023-05-01T03:14:06.511Z,19.97
2023-05-01T03:16:35.040Z,19.94
2023-05-01T03:19:03.471Z,19.91
2023-05-01T03:21:32.482Z,19.88
2023-05-01T03:24:03.755Z,19.84
2023-05-01T03:26:32.068Z,19.81
2023-05-01T03:29:02.429Z,19.78
2023-05-01T03:31:31.794Z,19.77
2023-05-01T03:34:00.529Z,19.75
2023-05-01T03:36:29.667Z,19.73
2023-05-01T03:38:58.346Z,19.71
2023-05-01T03:41:26.901Z,19.70
2023-05-01T03:43:55.865Z,19.68
2023-05-01T03:46:24.915Z,19.67
2023-05-01T03:48:53.219Z,19.65
2023-05-01T03:51:21.455Z,19.63
2023-05-01T03:53:51.035Z,19.62
2023-05-01T03:56:20.287Z,19.60
2023-05-01T03:58:49.917Z,19.59
2023-05-01T04:01:19.394Z,19.58
2023-05-01T04:03:48.835Z,19.56
2023-05-01T04:06:19.564Z,19.55
2023-05-01T04:08:48.490Z,19.53
2023-05-01T04:11:17.322Z,19.52
2023-05-01T04:13:45.772Z,19.50
2023-05-01T04:16:14.705Z,19.48
2023-05-01T04:18:43.446Z,19.47
2023-05-01T04:21:13.253Z,19.46
2023-05-01T04:23:43.540Z,19.44
2023-05-01T04:26:12.439Z,19.42
2023-05-01T04:28:41.640Z,19.41
2023-05-01T04:31:10.644Z,19.40
2023-05-01T04:33:39.800Z,19.37
2023-05-01T04:36:08.384Z,19.36
2023-05-01T04:38:37.415Z,19.34
2023-05-01T04:41:08.503Z,19.32
2023-05-01T04:43:37.961Z,19.30
2023-05-01T04:46:06.997Z,19.27
2023-05-01T04:48:35.372Z,19.24
2023-05-01T04:51:04.079Z,19.21
2023-05-01T04:53:32.421Z,19.18
2023-05-01T04:56:01.266Z,19.16
2023-05-01T04:58:30.006Z,19.14
2023-05-01T05:00:59.234Z,19.11
2023-05-01T05:03:27.865Z,19.09
2023-05-01T05:05:56.405Z,19.08
2023-05-01T05:08:25.955Z,19.06
2023-05-01T05:10:59.510Z,19.04
2023-05-01T05:13:28.345Z,19.02
2023-05-01T05:15:57.104Z,19.00
2023-05-01T05:18:25.848Z,19.00
2023-05-01T05:20:55.099Z,19.01
2023-05-01T05:23:23.162Z,19.01
2023-05-01T05:25:51.463Z,19.02
2023-05-01T05:28:20.832Z,19.03
2023-05-01T05:30:50.544Z,19.05
2023-05-01T05:33:19.463Z,19.07
2023-05-01T05:35:48.415Z,19.09
2023-05-01T05:38:17.225Z,19.12
2023-05-01T05:40:46.686Z,19.15
2023-05-01T05:43:14.911Z,19.19
2023-05-01T05:45:44.151Z,19.25
2023-05-01T05:48:13.012Z,19.31
2023-05-01T05:50:41.674Z,19.37
2023-05-01T05:53:10.249Z,19.43
2023-05-01T05:55:40.243Z,19.49
2023-05-01T05:58:09.966Z,19.56
2023-05-01T06:00:38.130Z,19.61
2023-05-01T06:03:07.168Z,19.69
2023-05-01T06:05:36.688Z,19.75
2023-05-01T06:08:05.462Z,19.83
2023-05-01T06:10:34.321Z,19.91
2023-05-01T06:13:12.813Z,20.00
2023-05-01T06:15:43.361Z,20.11
2023-05-01T06:18:12.260Z,20.23
2023-05-01T06:20:41.601Z,20.41
2023-05-01T06:23:10.232Z,20.91
2023-05-01T06:25:38.816Z,22.01
2023-05-01T06:28:07.027Z,23.44
2023-05-01T06:30:35.348Z,24.92
2023-05-01T06:33:04.155Z,26.40
2023-05-01T06:35:32.846Z,27.79
2023-05-01T06:38:01.660Z,29.05
2023-05-01T06:40:30.449Z,30.21
2023-05-01T06:42:58.883Z,31.10
2023-05-01T06:45:27.757Z,31.63
2023-05-01T06:47:57.615Z,31.92
2023-05-01T06:50:26.357Z,32.17
2023-05-01T06:52:55.948Z,32.53
2023-05-01T06:55:25.595Z,33.08
2023-05-01T06:57:53.862Z,33.77
2023-05-01T07:00:22.355Z,34.47
2023-05-01T07:02:51.172Z,35.20
2023-05-01T07:05:19.649Z,35.97
2023-05-01T07:07:58.060Z,36.67
2023-05-01T07:10:28.984Z,37.29
2023-05-01T07:12:57.972Z,37.69
2023-05-01T07:15:27.210Z,38.01
2023-05-01T07:17:55.994Z,38.25
2023-05-01T07:20:25.496Z,38.63
2023-05-01T07:22:54.463Z,39.14
2023-05-01T07:25:23.105Z,39.63
2023-05-01T07:27:51.829Z,39.92
2023-05-01T07:30:20.654Z,39.89
2023-05-01T07:32:49.980Z,39.99
2023-05-01T07:35:18.466Z,40.16
2023-05-01T07:37:46.818Z,40.47
2023-05-01T07:40:15.741Z,40.80
2023-05-01T07:42:44.106Z,40.88
2023-05-01T07:45:12.574Z,40.90
2023-05-01T07:47:40.962Z,41.08
2023-05-01T07:50:13.178Z,41.13
2023-05-01T07:52:44.157Z,40.95
2023-05-01T07:55:13.013Z,40.33
2023-05-01T07:57:42.463Z,39.83
2023-05-01T08:00:11.340Z,39.73
2023-05-01T08:02:41.362Z,39.61
2023-05-01T08:05:10.511Z,39.47
2023-05-01T08:07:39.795Z,39.41
2023-05-01T08:10:08.859Z,39.71
2023-05-01T08:12:36.998Z,40.13
2023-05-01T08:15:06.883Z,40.39
2023-05-01T08:17:38.657Z,40.58
2023-05-01T08:20:07.866Z,40.84
2023-05-01T08:22:36.603Z,41.07
2023-05-01T08:25:06.668Z,41.35
2023-05-01T08:27:35.425Z,41.52
2023-05-01T08:30:05.291Z,41.45
2023-05-01T08:32:34.336Z,41.22
2023-05-01T08:35:03.553Z,40.90
2023-05-01T08:37:32.676Z,40.44
2023-05-01T08:40:00.988Z,40.13
2023-05-01T08:42:31.021Z,39.45
2023-05-01T08:45:01.849Z,38.31
2023-05-01T08:47:31.106Z,37.10
2023-05-01T08:50:00.325Z,36.08
2023-05-01T08:52:32.417Z,35.78
2023-05-01T08:55:03.031Z,36.04
2023-05-01T08:57:32.832Z,36.56
2023-05-01T09:00:01.702Z,37.17
2023-05-01T09:02:34.976Z,37.63
2023-05-01T09:05:04.164Z,38.14
2023-05-01T09:07:33.732Z,38.75
2023-05-01T09:10:02.432Z,39.33
2023-05-01T09:12:30.900Z,39.58
2023-05-01T09:14:59.229Z,39.79
2023-05-01T09:17:27.928Z,39.69
2023-05-01T09:19:56.554Z,39.58
2023-05-01T09:22:25.521Z,39.56
2023-05-01T09:24:53.862Z,39.88
2023-05-01T09:27:22.917Z,40.32
2023-05-01T09:29:51.135Z,40.56
2023-05-01T09:32:21.267Z,40.33
2023-05-01T09:34:51.716Z,39.59
2023-05-01T09:37:30.353Z,38.64
2023-05-01T09:40:10.257Z,37.97
2023-05-01T09:42:50.484Z,37.40
2023-05-01T09:45:20.096Z,36.86
2023-05-01T09:47:48.584Z,36.45
2023-05-01T09:50:34.558Z,36.24
2023-05-01T09:53:04.935Z,36.36
2023-05-01T09:55:34.368Z,36.43
2023-05-01T09:58:02.890Z,36.52
2023-05-01T10:00:31.769Z,36.52
2023-05-01T10:03:13.981Z,36.39
2023-05-01T10:05:43.881Z,36.02
2023-05-01T10:08:12.110Z,35.67
2023-05-01T10:10:42.267Z,35.67
2023-05-01T10:13:17.787Z,36.03
2023-05-01T10:15:46.434Z,36.47
2023-05-01T10:18:17.102Z,36.84
2023-05-01T10:20:46.430Z,37.51
2023-05-01T10:23:14.943Z,38.03
2023-05-01T10:25:45.109Z,38.65
2023-05-01T10:28:13.509Z,39.39
2023-05-01T10:30:43.319Z,39.94
2023-05-01T10:33:14.234Z,40.30
2023-05-01T10:35:48.424Z,40.33
2023-05-01T10:38:26.800Z,39.94
2023-05-01T10:40:55.374Z,39.32
2023-05-01T10:43:31.395Z,39.10
2023-05-01T10:46:18.416Z,39.05
2023-05-01T10:48:47.329Z,39.24
2023-05-01T10:51:26.651Z,39.45
2023-05-01T10:54:34.317Z,39.58
2023-05-01T10:57:03.660Z,39.71
2023-05-01T11:00:00.959Z,39.88
2023-05-01T11:02:29.841Z,40.11
2023-05-01T11:04:58.238Z,40.25
2023-05-01T11:07:26.772Z,40.47
2023-05-01T11:09:56.833Z,40.72
2023-05-01T11:12:46.803Z,40.48
2023-05-01T11:15:35.792Z,40.30
2023-05-01T11:18:05.452Z,40.48
2023-05-01T11:20:38.374Z,40.55
2023-05-01T11:23:07.378Z,40.75
2023-05-01T11:25:36.142Z,40.40
2023-05-01T11:28:05.100Z,39.53
2023-05-01T11:30:38.015Z,38.70
2023-05-01T11:33:10.163Z,38.13
2023-05-01T11:35:39.501Z,37.76
2023-05-01T11:38:17.836Z,37.47
2023-05-01T11:40:46.237Z,37.27
2023-05-01T11:43:15.537Z,37.05
2023-05-01T11:45:44.855Z,37.02
2023-05-01T11:48:16.948Z,36.74
2023-05-01T11:50:45.336Z,36.55
2023-05-01T11:53:15.348Z,35.97
2023-05-01T11:55:43.640Z,35.28
2023-05-01T11:58:12.768Z,34.79
2023-05-01T12:00:42.871Z,34.35
2023-05-01T12:03:14.615Z,33.63
2023-05-01T12:05:45.462Z,32.72
2023-05-01T12:08:17.335Z,31.94
2023-05-01T12:10:50.658Z,31.75
2023-05-01T12:13:20.889Z,31.81
2023-05-01T12:15:54.796Z,31.75
2023-05-01T12:18:23.677Z,31.60
2023-05-01T12:20:55.084Z,31.36
2023-05-01T12:23:34.395Z,30.72
2023-05-01T12:26:15.977Z,29.67
2023-05-01T12:29:02.763Z,28.77
2023-05-01T12:31:33.758Z,28.29
2023-05-01T12:34:06.555Z,28.28
2023-05-01T12:36:37.727Z,27.93
2023-05-01T12:39:11.440Z,27.44
2023-05-01T12:41:49.312Z,27.12
2023-05-01T12:44:22.144Z,26.84
2023-05-01T12:47:05.619Z,26.58
2023-05-01T12:49:35.720Z,26.27
2023-05-01T12:52:06.804Z,26.12
2023-05-01T12:54:40.490Z,26.04
2023-05-01T12:57:11.781Z,26.18
2023-05-01T12:59:43.063Z,26.54
2023-05-01T13:02:14.782Z,26.81
2023-05-01T13:04:45.840Z,26.88
2023-05-01T13:07:16.485Z,26.68
2023-05-01T13:09:57.840Z,26.56
2023-05-01T13:12:27.744Z,26.62
2023-05-01T13:14:57.022Z,26.72
2023-05-01T13:17:33.177Z,26.80
2023-05-01T13:20:04.403Z,26.89
2023-05-01T13:22:38.173Z,26.95
2023-05-01T13:25:16.086Z,26.75
2023-05-01T13:27:50.273Z,26.53
2023-05-01T13:30:20.477Z,26.47
2023-05-01T13:32:49.881Z,26.50
2023-05-01T13:35:27.376Z,26.61
2023-05-01T13:37:55.880Z,26.72
2023-05-01T13:40:26.353Z,26.76
2023-05-01T13:42:55.333Z,26.65
2023-05-01T13:45:25.314Z,26.34
2023-05-01T13:47:54.892Z,25.97
2023-05-01T13:50:24.021Z,25.64
2023-05-01T13:52:52.873Z,25.40
2023-05-01T13:55:22.391Z,25.22
2023-05-01T13:57:51.924Z,25.06
2023-05-01T14:00:20.645Z,25.01
2023-05-01T14:02:49.704Z,25.03
2023-05-01T14:05:26.911Z,25.19
2023-05-01T14:07:58.144Z,25.37
2023-05-01T14:10:28.973Z,25.45
2023-05-01T14:13:00.947Z,25.66
2023-05-01T14:15:29.914Z,25.84
2023-05-01T14:17:58.561Z,25.98
2023-05-01T14:20:27.899Z,26.03
2023-05-01T14:22:57.551Z,26.07
2023-05-01T14:25:31.386Z,26.25
2023-05-01T14:28:01.235Z,26.40
2023-05-01T14:30:34.785Z,26.30
2023-05-01T14:33:05.574Z,25.98
2023-05-01T14:35:35.295Z,25.62
2023-05-01T14:38:17.729Z,25.34
2023-05-01T14:40:47.111Z,25.37
2023-05-01T14:43:21.387Z,25.49
2023-05-01T14:45:50.002Z,25.33
2023-05-01T14:48:24.899Z,25.19
2023-05-01T14:50:53.933Z,25.17
2023-05-01T14:53:23.211Z,25.18
2023-05-01T14:55:52.389Z,25.17
2023-05-01T14:58:21.672Z,25.13
2023-05-01T15:00:51.554Z,25.13
2023-05-01T15:03:21.021Z,25.18
2023-05-01T15:05:49.352Z,25.28
2023-05-01T15:08:17.523Z,25.30
2023-05-01T15:10:47.059Z,25.14
2023-05-01T15:13:15.308Z,25.00
2023-05-01T15:15:43.585Z,24.86
2023-05-01T15:18:12.333Z,24.80
2023-05-01T15:20:40.984Z,24.76
2023-05-01T15:23:09.566Z,24.67
2023-05-01T15:25:38.770Z,24.51
2023-05-01T15:28:08.635Z,24.47
2023-05-01T15:30:37.369Z,24.58
2023-05-01T15:33:05.746Z,24.73
2023-05-01T15:35:34.398Z,24.91
2023-05-01T15:38:03.265Z,24.95
2023-05-01T15:40:31.836Z,24.92
2023-05-01T15:43:01.744Z,24.90
2023-05-01T15:45:30.498Z,24.88
2023-05-01T15:47:59.586Z,24.94
2023-05-01T15:50:27.957Z,25.05
2023-05-01T15:52:57.503Z,25.11
2023-05-01T15:55:26.333Z,24.91
2023-05-01T15:57:55.202Z,24.83
2023-05-01T16:00:24.326Z,24.80
2023-05-01T16:02:53.950Z,24.75
2023-05-01T16:05:22.850Z,24.67
2023-05-01T16:07:55.384Z,24.55
2023-05-01T16:10:23.871Z,24.48
2023-05-01T16:12:55.653Z,24.52
2023-05-01T16:15:23.765Z,24.56
2023-05-01T16:17:52.180Z,24.61
2023-05-01T16:20:23.602Z,24.61
2023-05-01T16:22:51.902Z,24.63
2023-05-01T16:25:20.231Z,24.67
2023-05-01T16:27:49.694Z,24.59
2023-05-01T16:30:19.030Z,24.48
2023-05-01T16:32:48.478Z,24.42
2023-05-01T16:35:18.778Z,24.41
2023-05-01T16:37:48.398Z,24.39
2023-05-01T16:40:18.442Z,24.36
2023-05-01T16:42:53.946Z,24.39
2023-05-01T16:45:23.991Z,24.38
2023-05-01T16:47:53.319Z,24.33
2023-05-01T16:50:22.774Z,24.33
2023-05-01T16:52:52.725Z,24.35
2023-05-01T16:55:23.130Z,24.36
2023-05-01T16:57:53.332Z,24.36
2023-05-01T17:00:22.720Z,24.37
2023-05-01T17:02:51.799Z,24.36
2023-05-01T17:05:20.286Z,24.30
2023-05-01T17:07:50.787Z,24.27
2023-05-01T17:10:19.802Z,24.24
2023-05-01T17:12:48.736Z,24.14
2023-05-01T17:15:18.322Z,24.07
2023-05-01T17:17:47.235Z,24.03
2023-05-01T17:20:15.747Z,24.01
2023-05-01T17:22:44.184Z,23.99
2023-05-01T17:25:13.758Z,23.92
2023-05-01T17:27:42.501Z,23.85
2023-05-01T17:30:11.176Z,23.80
2023-05-01T17:32:41.088Z,23.74
2023-05-01T17:35:10.509Z,23.68
2023-05-01T17:37:39.840Z,23.66
2023-05-01T17:40:09.413Z,23.64
2023-05-01T17:42:38.419Z,23.58
2023-05-01T17:45:09.357Z,23.55
2023-05-01T17:47:39.403Z,23.55
2023-05-01T17:50:13.331Z,23.53
2023-05-01T17:52:42.975Z,23.48
2023-05-01T17:55:13.638Z,23.48
2023-05-01T17:57:43.649Z,23.44
2023-05-01T18:00:15.154Z,23.37
2023-05-01T18:02:44.258Z,23.28
2023-05-01T18:05:13.696Z,23.19
2023-05-01T18:07:41.915Z,23.09
2023-05-01T18:10:10.872Z,23.04
2023-05-01T18:12:39.795Z,23.00
2023-05-01T18:15:09.121Z,22.93
2023-05-01T18:17:38.132Z,22.85
2023-05-01T18:20:07.813Z,22.77
2023-05-01T18:22:36.205Z,22.72
2023-05-01T18:25:07.657Z,22.65
2023-05-01T18:27:36.001Z,22.58
2023-05-01T18:30:05.227Z,22.51
2023-05-01T18:32:46.899Z,22.46
2023-05-01T18:35:17.941Z,22.41
2023-05-01T18:37:46.930Z,22.37
2023-05-01T18:40:15.773Z,22.34
2023-05-01T18:42:46.011Z,22.31
2023-05-01T18:45:14.713Z,22.28
2023-05-01T18:47:43.492Z,22.24
2023-05-01T18:50:12.726Z,22.19
2023-05-01T18:52:41.656Z,22.16
2023-05-01T18:55:10.697Z,22.13
2023-05-01T18:57:39.414Z,22.10
2023-05-01T19:00:08.925Z,22.07
2023-05-01T19:02:37.792Z,22.04
2023-05-01T19:05:07.984Z,22.02
2023-05-01T19:07:37.083Z,22.00
2023-05-01T19:10:06.235Z,21.99
2023-05-01T19:12:34.925Z,21.97
2023-05-01T19:15:03.735Z,21.95
2023-05-01T19:17:33.258Z,21.93
2023-05-01T19:20:01.922Z,21.91
2023-05-01T19:22:30.763Z,21.89
2023-05-01T19:24:58.934Z,21.87
2023-05-01T19:27:27.195Z,21.84
2023-05-01T19:29:57.567Z,21.82
2023-05-01T19:32:29.050Z,21.79
2023-05-01T19:34:57.951Z,21.76
2023-05-01T19:37:27.905Z,21.74
2023-05-01T19:39:58.986Z,21.70
2023-05-01T19:42:27.433Z,21.67
2023-05-01T19:44:55.830Z,21.64
2023-05-01T19:47:25.550Z,21.61
2023-05-01T19:49:54.218Z,21.59
2023-05-01T19:52:23.022Z,21.55
2023-05-01T19:54:51.598Z,21.53
2023-05-01T19:57:20.031Z,21.51
2023-05-01T19:59:49.373Z,21.50
2023-05-01T20:02:17.779Z,21.49
2023-05-01T20:04:46.905Z,21.49
2023-05-01T20:07:18.305Z,21.49
2023-05-01T20:09:48.671Z,21.49
2023-05-01T20:12:17.905Z,21.48
2023-05-01T20:14:49.148Z,21.48
2023-05-01T20:17:18.760Z,21.47
2023-05-01T20:19:46.910Z,21.45
2023-05-01T20:22:16.441Z,21.43
2023-05-01T20:24:45.332Z,21.41
2023-05-01T20:27:13.585Z,21.41
2023-05-01T20:29:41.794Z,21.39
2023-05-01T20:32:10.004Z,21.37
2023-05-01T20:34:38.312Z,21.34
2023-05-01T20:37:06.619Z,21.32
2023-05-01T20:39:34.797Z,21.29
2023-05-01T20:42:02.942Z,21.26
2023-05-01T20:44:31.641Z,21.23
2023-05-01T20:46:59.888Z,21.22
2023-05-01T20:49:29.726Z,21.22
2023-05-01T20:51:58.041Z,21.20
2023-05-01T20:54:26.302Z,21.18
2023-05-01T20:56:54.859Z,21.18
2023-05-01T20:59:24.390Z,21.17
2023-05-01T21:01:52.617Z,21.14
2023-05-01T21:04:21.013Z,21.13
2023-05-01T21:06:50.653Z,21.10
2023-05-01T21:09:19.682Z,21.07
2023-05-01T21:11:47.954Z,21.05
2023-05-01T21:14:16.189Z,21.03
2023-05-01T21:16:44.325Z,21.01
2023-05-01T21:19:15.036Z,20.99
2023-05-01T21:21:43.283Z,20.97
2023-05-01T21:24:20.898Z,20.95
2023-05-01T21:26:49.891Z,20.93
2023-05-01T21:29:18.650Z,20.91
2023-05-01T21:31:47.019Z,20.89
2023-05-01T21:34:18.383Z,20.88
2023-05-01T21:36:47.690Z,20.85
2023-05-01T21:39:16.573Z,20.83
2023-05-01T21:41:48.599Z,20.81
2023-05-01T21:44:17.849Z,20.79
2023-05-01T21:46:46.433Z,20.77
2023-05-01T21:49:16.135Z,20.75
2023-05-01T21:51:44.734Z,20.74
2023-05-01T21:54:17.081Z,20.71
2023-05-01T21:56:45.301Z,20.68
2023-05-01T21:59:13.448Z,20.65
2023-05-01T22:01:41.783Z,20.63
2023-05-01T22:04:17.639Z,20.61
2023-05-01T22:06:47.377Z,20.59
2023-05-01T22:09:16.274Z,20.57
2023-05-01T22:11:45.190Z,20.55
2023-05-01T22:14:14.368Z,20.53
2023-05-01T22:16:42.761Z,20.51
2023-05-01T22:19:11.947Z,20.49
2023-05-01T22:21:41.887Z,20.48
2023-05-01T22:24:10.160Z,20.45
2023-05-01T22:26:38.359Z,20.42
2023-05-01T22:29:06.526Z,20.42
2023-05-01T22:31:35.441Z,20.40
2023-05-01T22:34:03.688Z,20.39
2023-05-01T22:36:32.083Z,20.39
2023-05-01T22:39:00.246Z,20.38
2023-05-01T22:41:29.832Z,20.37
2023-05-01T22:43:59.955Z,20.35
2023-05-01T22:46:28.118Z,20.32
2023-05-01T22:48:56.712Z,20.32
2023-05-01T22:51:26.546Z,20.30
2023-05-01T22:53:55.937Z,20.28
2023-05-01T22:56:27.012Z,20.26
2023-05-01T22:58:55.525Z,20.24
2023-05-01T23:01:24.499Z,20.23
2023-05-01T23:03:53.464Z,20.22
2023-05-01T23:06:23.112Z,20.22
2023-05-01T23:08:55.331Z,20.20
2023-05-01T23:11:24.178Z,20.19
2023-05-01T23:13:52.379Z,20.17
2023-05-01T23:16:21.735Z,20.16
2023-05-01T23:18:51.883Z,20.15
2023-05-01T23:21:20.609Z,20.13
2023-05-01T23:23:48.906Z,20.12
2023-05-01T23:26:28.255Z,20.10
2023-05-01T23:28:58.326Z,20.08
2023-05-01T23:31:27.782Z,20.06
2023-05-01T23:33:57.604Z,20.04
2023-05-01T23:36:26.760Z,20.02
2023-05-01T23:38:54.973Z,20.00
2023-05-01T23:41:24.153Z,19.99
2023-05-01T23:43:52.809Z,19.97
2023-05-01T23:46:21.619Z,19.95
2023-05-01T23:48:50.459Z,19.91
2023-05-01T23:51:19.613Z,19.87
2023-05-01T23:53:47.916Z,19.84
2023-05-01T23:56:16.159Z,19.82
2023-05-01T23:58:44.677Z,19.79
